createdAt,value
2022-12-11T00:00:34.170Z,3.42
2022-12-11T00:03:04.948Z,3.50
2022-12-11T00:05:36.206Z,3.67
2022-12-11T00:08:09.497Z,3.25
2022-12-11T00:10:40.580Z,3.50
2022-12-11T00:13:11.097Z,3.78
2022-12-11T00:15:41.785Z,4.43
2022-12-11T00:18:15.310Z,3.10
2022-12-11T00:20:46.271Z,4.22
2022-12-11T00:23:19.398Z,5.85
2022-12-11T00:25:51.137Z,4.22
2022-12-11T00:28:21.838Z,4.40
2022-12-11T00:30:52.849Z,4.03
2022-12-11T00:33:23.342Z,4.85
2022-12-11T00:35:54.011Z,4.40
2022-12-11T00:38:27.318Z,4.20
2022-12-11T00:41:01.682Z,4.35
2022-12-11T00:43:32.184Z,3.63
2022-12-11T00:46:02.982Z,4.25
2022-12-11T00:48:33.730Z,3.97
2022-12-11T00:51:04.374Z,4.80
2022-12-11T00:53:37.587Z,4.18
2022-12-11T00:56:14.484Z,4.47
2022-12-11T00:58:45.290Z,4.47
2022-12-11T01:01:22.760Z,5.47
2022-12-11T01:03:53.747Z,4.07
2022-12-11T01:06:26.669Z,4.00
2022-12-11T01:09:12.754Z,4.13
2022-12-11T01:11:45.780Z,4.45
2022-12-11T01:14:16.645Z,5.07
2022-12-11T01:16:47.414Z,3.70
2022-12-11T01:19:18.042Z,4.60
2022-12-11T01:21:48.629Z,3.75
2022-12-11T01:24:21.830Z,4.15
2022-12-11T01:26:52.358Z,4.53
2022-12-11T01:29:22.859Z,4.95
2022-12-11T01:31:53.423Z,4.43
2022-12-11T01:34:24.202Z,4.07
2022-12-11T01:36:55.670Z,4.38
2022-12-11T01:39:29.035Z,4.35
2022-12-11T01:42:01.009Z,3.80
2022-12-11T01:45:01.420Z,3.75
2022-12-11T01:47:33.386Z,3.33
2022-12-11T01:50:03.978Z,4.05
2022-12-11T01:52:34.630Z,4.03
2022-12-11T01:55:09.543Z,3.72
2022-12-11T02:00:12.694Z,3.40
2022-12-11T02:02:48.642Z,4.25
2022-12-11T02:05:19.245Z,3.42
2022-12-11T02:07:53.570Z,3.40
2022-12-11T02:10:31.837Z,3.40
2022-12-11T02:13:06.092Z,3.92
2022-12-11T02:15:41.102Z,4.25
2022-12-11T02:18:20.093Z,3.60
2022-12-11T02:20:57.711Z,4.68
2022-12-11T02:24:07.601Z,3.35
2022-12-11T02:26:58.282Z,3.38
2022-12-11T02:29:38.143Z,3.13
2022-12-11T02:32:14.055Z,3.10
2022-12-11T02:34:49.915Z,4.43
2022-12-11T02:37:28.350Z,4.30
2022-12-11T02:40:00.244Z,2.80
2022-12-11T02:42:34.456Z,3.00
2022-12-11T02:45:11.230Z,2.63
2022-12-11T02:47:42.715Z,2.65
2022-12-11T02:50:18.520Z,2.70
2022-12-11T02:52:51.080Z,2.70
2022-12-11T02:55:22.482Z,2.95
2022-12-11T02:57:56.276Z,3.25
2022-12-11T03:00:29.474Z,3.15
2022-12-11T03:03:00.447Z,2.42
2022-12-11T03:05:31.054Z,2.67
2022-12-11T03:08:01.654Z,2.05
2022-12-11T03:10:32.349Z,2.58
2022-12-11T03:13:03.941Z,2.63
2022-12-11T03:15:44.765Z,2.13
2022-12-11T03:18:22.030Z,2.60
2022-12-11T03:21:06.011Z,2.67
2022-12-11T03:23:44.607Z,2.13
2022-12-11T03:26:18.547Z,2.50
2022-12-11T03:28:52.638Z,2.67
2022-12-11T03:31:32.695Z,2.33
2022-12-11T03:34:07.496Z,2.38
2022-12-11T03:36:41.243Z,2.17
2022-12-11T03:39:15.922Z,3.28
2022-12-11T03:41:48.696Z,2.50
2022-12-11T03:44:19.842Z,2.25
2022-12-11T03:46:56.315Z,2.80
2022-12-11T03:49:30.329Z,2.33
2022-12-11T03:52:03.465Z,2.80
2022-12-11T03:54:34.568Z,2.50
2022-12-11T03:57:07.175Z,2.55
2022-12-11T03:59:37.657Z,2.53
2022-12-11T04:02:11.206Z,2.45
2022-12-11T04:04:43.114Z,2.60
2022-12-11T04:07:13.594Z,2.75
2022-12-11T04:09:44.090Z,2.45
2022-12-11T04:12:14.661Z,2.63
2022-12-11T04:14:57.688Z,2.35
2022-12-11T04:17:43.342Z,2.33
2022-12-11T04:23:10.031Z,1.95
2022-12-11T04:25:40.812Z,1.90
2022-12-11T04:28:11.704Z,2.05
2022-12-11T04:30:42.320Z,2.67
2022-12-11T04:33:15.636Z,2.28
2022-12-11T04:35:46.219Z,2.03
2022-12-11T04:38:16.934Z,1.88
2022-12-11T04:40:47.631Z,2.10
2022-12-11T04:43:18.290Z,2.70
2022-12-11T04:45:48.855Z,1.98
2022-12-11T04:48:22.177Z,1.80
2022-12-11T04:50:52.909Z,2.72
2022-12-11T04:53:23.540Z,2.13
2022-12-11T04:55:54.125Z,1.95
2022-12-11T04:58:24.919Z,2.10
2022-12-11T05:00:55.897Z,2.60
2022-12-11T05:03:29.141Z,2.00
2022-12-11T05:05:59.667Z,2.00
2022-12-11T05:08:30.347Z,2.00
2022-12-11T05:11:01.704Z,2.08
2022-12-11T05:13:33.108Z,2.85
2022-12-11T05:16:06.283Z,2.67
2022-12-11T05:18:39.769Z,2.72
2022-12-11T05:21:13.214Z,2.20
2022-12-11T05:23:44.613Z,2.15
2022-12-11T05:26:17.277Z,2.20
2022-12-11T05:28:48.615Z,2.53
2022-12-11T05:31:21.350Z,3.47
2022-12-11T05:33:55.155Z,2.67
2022-12-11T05:36:28.551Z,2.42
2022-12-11T05:39:00.762Z,2.00
2022-12-11T05:41:33.900Z,2.42
2022-12-11T05:44:04.583Z,2.60
2022-12-11T05:46:35.926Z,2.33
2022-12-11T05:49:09.354Z,3.00
2022-12-11T05:51:41.481Z,2.25
2022-12-11T05:54:12.783Z,2.15
2022-12-11T05:56:43.374Z,2.30
2022-12-11T05:59:14.014Z,2.38
2022-12-11T06:01:46.230Z,2.47
2022-12-11T06:04:19.697Z,2.90
2022-12-11T06:06:50.224Z,3.22
2022-12-11T06:09:20.873Z,3.17
2022-12-11T06:11:51.403Z,2.40
2022-12-11T06:14:22.018Z,2.50
2022-12-11T06:16:53.171Z,2.63
2022-12-11T06:19:26.494Z,1.65
2022-12-11T06:21:57.042Z,2.20
2022-12-11T06:24:27.746Z,2.80
2022-12-11T06:26:58.554Z,2.72
2022-12-11T06:29:29.257Z,3.42
2022-12-11T06:31:59.845Z,2.22
2022-12-11T06:34:33.107Z,1.70
2022-12-11T06:37:03.891Z,1.98
2022-12-11T06:39:34.752Z,2.47
2022-12-11T06:42:05.287Z,1.88
2022-12-11T06:44:35.937Z,2.20
2022-12-11T06:47:07.218Z,2.10
2022-12-11T06:49:40.546Z,1.90
2022-12-11T06:52:16.590Z,2.47
2022-12-11T06:54:48.764Z,1.70
2022-12-11T06:57:19.909Z,2.58
2022-12-11T06:59:50.435Z,2.72
2022-12-11T07:02:22.754Z,2.30
2022-12-11T07:04:56.088Z,2.22
2022-12-11T07:07:26.736Z,3.13
2022-12-11T07:09:58.654Z,2.70
2022-12-11T07:12:30.936Z,2.00
2022-12-11T07:15:01.462Z,2.13
2022-12-11T07:17:34.540Z,2.25
2022-12-11T07:20:09.537Z,2.05
2022-12-11T07:22:46.212Z,2.33
2022-12-11T07:25:17.804Z,2.13
2022-12-11T07:27:48.441Z,2.58
2022-12-11T07:30:19.576Z,1.60
2022-12-11T07:32:50.236Z,1.65
2022-12-11T07:35:23.547Z,2.13
2022-12-11T07:37:54.174Z,2.05
2022-12-11T07:40:24.717Z,1.95
2022-12-11T07:42:55.345Z,1.88
2022-12-11T07:45:26.622Z,1.92
2022-12-11T07:47:57.284Z,2.85
2022-12-11T07:50:35.113Z,4.40
2022-12-11T07:53:08.764Z,4.55
2022-12-11T07:55:39.362Z,3.20
2022-12-11T07:58:09.974Z,2.25
2022-12-11T08:00:41.226Z,3.15
2022-12-11T08:03:12.009Z,2.20
2022-12-11T08:05:51.160Z,2.20
2022-12-11T08:08:22.843Z,2.50
2022-12-11T08:10:53.673Z,2.25
2022-12-11T08:13:24.306Z,1.92
2022-12-11T08:15:54.962Z,1.80
2022-12-11T08:18:25.829Z,1.88
2022-12-11T08:20:59.054Z,1.60
2022-12-11T08:23:29.825Z,1.50
2022-12-11T08:26:00.560Z,1.75
2022-12-11T08:28:31.248Z,1.88
2022-12-11T08:31:02.302Z,2.25
2022-12-11T08:33:33.067Z,1.80
2022-12-11T08:36:10.178Z,1.80
2022-12-11T08:38:40.967Z,2.00
2022-12-11T08:41:13.037Z,1.92
2022-12-11T08:43:44.214Z,1.75
2022-12-11T08:46:16.621Z,2.38
2022-12-11T08:48:47.431Z,1.70
2022-12-11T08:51:23.952Z,1.67
2022-12-11T08:53:54.828Z,1.13
2022-12-11T08:56:25.992Z,1.40
2022-12-11T08:58:57.913Z,1.23
2022-12-11T09:01:29.846Z,1.20
2022-12-11T09:04:00.685Z,1.27
2022-12-11T09:06:35.890Z,1.38
2022-12-11T09:09:07.442Z,1.50
2022-12-11T09:11:40.287Z,1.27
2022-12-11T09:14:11.027Z,1.20
2022-12-11T09:16:43.480Z,1.60
2022-12-11T09:19:17.909Z,1.92
2022-12-11T09:21:51.397Z,1.73
2022-12-11T09:24:21.963Z,1.77
2022-12-11T09:26:52.539Z,1.30
2022-12-11T09:29:23.238Z,2.40
2022-12-11T09:31:54.087Z,3.00
2022-12-11T09:34:29.159Z,2.50
2022-12-11T09:37:02.796Z,1.35
2022-12-11T09:39:33.443Z,1.50
2022-12-11T09:42:11.227Z,2.13
2022-12-11T09:44:46.641Z,1.92
2022-12-11T09:47:25.731Z,1.70
2022-12-11T09:50:05.805Z,1.50
2022-12-11T09:52:43.609Z,1.70
2022-12-11T09:55:19.826Z,1.88
2022-12-11T09:58:02.263Z,1.67
2022-12-11T10:00:41.295Z,1.60
2022-12-11T10:03:34.223Z,1.98
2022-12-11T10:06:10.621Z,1.80
2022-12-11T10:08:50.906Z,2.25
2022-12-11T10:11:55.860Z,1.70
2022-12-11T10:14:36.447Z,1.97
2022-12-11T10:17:14.596Z,1.95
2022-12-11T10:19:46.087Z,1.95
2022-12-11T10:22:22.786Z,1.80
2022-12-11T10:25:15.333Z,1.60
2022-12-11T10:27:46.856Z,1.67
2022-12-11T10:30:20.648Z,2.05
2022-12-11T10:32:56.713Z,2.50
2022-12-11T10:35:37.012Z,2.25
2022-12-11T10:38:18.742Z,1.60
2022-12-11T10:40:55.770Z,1.80
2022-12-11T10:43:36.333Z,1.70
2022-12-11T10:46:08.581Z,1.77
2022-12-11T10:48:49.066Z,2.35
2022-12-11T10:51:20.673Z,1.80
2022-12-11T10:53:54.572Z,2.33
2022-12-11T10:56:35.857Z,3.03
2022-12-11T10:59:07.055Z,2.75
2022-12-11T11:01:37.752Z,2.00
2022-12-11T11:04:17.285Z,2.78
2022-12-11T11:06:47.830Z,2.55
2022-12-11T11:09:33.054Z,2.60
2022-12-11T11:12:08.250Z,3.17
2022-12-11T11:14:39.033Z,2.60
2022-12-11T11:17:17.205Z,2.90
2022-12-11T11:19:51.082Z,3.50
2022-12-11T11:22:24.771Z,4.05
2022-12-11T11:24:58.689Z,4.47
2022-12-11T11:27:37.253Z,4.90
2022-12-11T11:30:20.422Z,5.10
2022-12-11T11:32:54.608Z,5.50
2022-12-11T11:35:28.642Z,8.43
2022-12-11T11:38:08.151Z,6.10
2022-12-11T11:40:44.246Z,7.00
2022-12-11T11:43:29.382Z,6.63
2022-12-11T11:46:06.748Z,6.47
2022-12-11T11:48:47.542Z,6.82
2022-12-11T11:51:24.682Z,7.35
2022-12-11T11:53:58.186Z,6.82
2022-12-11T11:56:31.978Z,7.32
2022-12-11T11:59:16.017Z,7.60
2022-12-11T12:01:47.160Z,7.05
2022-12-11T12:04:18.000Z,7.55
2022-12-11T12:07:06.729Z,7.75
2022-12-11T12:09:48.528Z,7.45
2022-12-11T12:12:34.103Z,7.88
2022-12-11T12:15:19.859Z,6.95
2022-12-11T12:17:56.668Z,8.90
2022-12-11T12:20:39.031Z,7.63
2022-12-11T12:23:36.937Z,7.90
2022-12-11T12:26:17.743Z,7.90
2022-12-11T12:28:57.055Z,8.20
2022-12-11T12:31:52.993Z,6.93
2022-12-11T12:34:34.688Z,7.78
2022-12-11T12:37:15.181Z,7.90
2022-12-11T12:39:52.752Z,7.82
2022-12-11T12:42:33.053Z,9.55
2022-12-11T12:45:15.069Z,7.45
2022-12-11T12:47:53.361Z,7.63
2022-12-11T12:50:27.372Z,7.15
2022-12-11T12:52:59.983Z,9.23
2022-12-11T12:55:33.782Z,7.28
2022-12-11T12:58:06.506Z,6.53
2022-12-11T13:00:39.263Z,6.75
2022-12-11T13:03:20.469Z,5.63
2022-12-11T13:06:01.234Z,5.85
2022-12-11T13:08:36.537Z,5.85
2022-12-11T13:11:10.038Z,5.43
2022-12-11T13:13:42.737Z,7.22
2022-12-11T13:16:29.542Z,6.20
2022-12-11T13:19:02.722Z,6.63
2022-12-11T13:21:36.141Z,5.90
2022-12-11T13:24:27.285Z,6.35
2022-12-11T13:26:58.209Z,6.70
2022-12-11T13:29:36.979Z,6.97
2022-12-11T13:32:24.966Z,7.38
2022-12-11T13:35:00.358Z,9.05
2022-12-11T13:40:06.800Z,6.35
2022-12-11T13:42:41.036Z,7.38
2022-12-11T13:45:22.944Z,10.75
2022-12-11T13:47:53.919Z,11.70
2022-12-11T13:50:32.057Z,12.82
2022-12-11T13:53:05.161Z,5.97
2022-12-11T13:55:37.722Z,8.77
2022-12-11T13:58:19.596Z,8.57
2022-12-11T14:01:01.095Z,8.27
2022-12-11T14:03:32.979Z,6.10
2022-12-11T14:06:06.857Z,5.75
2022-12-11T14:08:39.868Z,6.50
2022-12-11T14:11:10.661Z,5.25
2022-12-11T14:13:43.834Z,6.50
2022-12-11T14:16:24.090Z,5.90
2022-12-11T14:18:56.354Z,5.70
2022-12-11T14:21:29.709Z,4.63
2022-12-11T14:24:03.597Z,6.60
2022-12-11T14:26:36.041Z,4.25
2022-12-11T14:29:07.136Z,3.97
2022-12-11T14:31:42.992Z,4.43
2022-12-11T14:34:18.855Z,6.18
2022-12-11T14:36:52.716Z,3.60
2022-12-11T14:39:29.146Z,5.22
2022-12-11T14:42:05.930Z,4.47
2022-12-11T14:44:46.918Z,4.18
2022-12-11T14:47:22.014Z,3.83
2022-12-11T14:49:58.934Z,3.70
2022-12-11T14:52:36.019Z,6.50
2022-12-11T14:55:10.737Z,4.90
2022-12-11T14:57:46.254Z,5.45
2022-12-11T15:03:02.075Z,4.30
2022-12-11T15:05:40.301Z,4.10
2022-12-11T15:08:27.447Z,3.80
2022-12-11T15:11:07.323Z,4.45
2022-12-11T15:13:40.518Z,2.38
2022-12-11T15:16:11.494Z,3.50
2022-12-11T15:18:44.721Z,3.60
2022-12-11T15:21:16.914Z,3.53
2022-12-11T15:23:55.597Z,4.53
2022-12-11T15:26:38.120Z,6.00
2022-12-11T15:29:23.009Z,3.50
2022-12-11T15:32:02.742Z,4.10
2022-12-11T15:34:38.448Z,3.78
2022-12-11T15:37:22.181Z,4.45
2022-12-11T15:39:56.447Z,3.63
2022-12-11T15:42:30.513Z,3.45
2022-12-11T15:45:03.017Z,4.22
2022-12-11T15:47:35.119Z,4.30
2022-12-11T15:50:16.103Z,4.57
2022-12-11T15:52:47.177Z,4.53
2022-12-11T15:55:21.181Z,8.80
2022-12-11T15:57:55.058Z,5.88
2022-12-11T16:00:27.762Z,3.35
2022-12-11T16:02:59.157Z,3.13
2022-12-11T16:05:30.459Z,3.55
2022-12-11T16:08:01.383Z,2.78
2022-12-11T16:10:34.725Z,3.05
2022-12-11T16:13:05.302Z,3.70
2022-12-11T16:15:35.969Z,3.75
2022-12-11T16:18:08.760Z,4.60
2022-12-11T16:20:41.202Z,5.88
2022-12-11T16:23:13.066Z,7.30
2022-12-11T16:25:48.010Z,6.50
2022-12-11T16:28:22.044Z,5.47
2022-12-11T16:30:52.725Z,3.50
2022-12-11T16:33:23.251Z,5.47
2022-12-11T16:35:55.303Z,4.70
2022-12-11T16:38:25.870Z,4.82
2022-12-11T16:41:06.192Z,4.63
2022-12-11T16:43:38.071Z,4.68
2022-12-11T16:46:10.715Z,3.60
2022-12-11T16:48:51.536Z,3.42
2022-12-11T16:51:23.842Z,4.55
2022-12-11T16:53:56.425Z,4.68
2022-12-11T16:56:31.916Z,4.25
2022-12-11T16:59:10.631Z,3.30
2022-12-11T17:01:42.415Z,4.68
2022-12-11T17:04:13.476Z,3.53
2022-12-11T17:06:44.498Z,3.17
2022-12-11T17:09:15.068Z,3.13
2022-12-11T17:11:48.324Z,3.90
2022-12-11T17:14:19.068Z,6.05
2022-12-11T17:16:49.891Z,3.33
2022-12-11T17:19:20.915Z,4.47
2022-12-11T17:21:51.967Z,4.13
2022-12-11T17:24:22.605Z,4.50
2022-12-11T17:26:56.173Z,6.85
2022-12-11T17:29:27.650Z,2.83
2022-12-11T17:31:59.146Z,5.65
2022-12-11T17:34:36.077Z,4.90
2022-12-11T17:37:09.466Z,6.03
2022-12-11T17:39:40.634Z,11.27
2022-12-11T17:42:14.075Z,8.57
2022-12-11T17:44:45.659Z,7.50
2022-12-11T17:47:16.351Z,7.43
2022-12-11T17:49:46.991Z,7.57
2022-12-11T17:52:17.791Z,6.30
2022-12-11T17:54:48.509Z,7.50
2022-12-11T17:57:22.045Z,7.35
2022-12-11T17:59:52.736Z,6.43
2022-12-11T18:02:23.397Z,6.57
2022-12-11T18:04:55.298Z,5.57
2022-12-11T18:07:26.021Z,8.27
2022-12-11T18:09:56.736Z,8.35
2022-12-11T18:12:31.254Z,8.38
2022-12-11T18:15:03.126Z,8.45
2022-12-11T18:17:35.746Z,6.93
2022-12-11T18:20:07.764Z,6.03
2022-12-11T18:22:38.476Z,6.88
2022-12-11T18:25:12.120Z,8.10
2022-12-11T18:27:46.098Z,7.15
2022-12-11T18:30:17.411Z,9.95
2022-12-11T18:32:48.965Z,12.73
2022-12-11T18:35:20.155Z,11.02
2022-12-11T18:37:50.871Z,8.98
2022-12-11T18:40:21.724Z,7.13
2022-12-11T18:42:55.153Z,6.80
2022-12-11T18:45:25.735Z,5.88
2022-12-11T18:47:56.774Z,8.02
2022-12-11T18:50:29.538Z,7.30
2022-12-11T18:53:01.348Z,7.93
2022-12-11T18:55:31.977Z,8.48
2022-12-11T18:58:05.310Z,5.88
2022-12-11T19:00:37.542Z,7.47
2022-12-11T19:03:08.245Z,6.00
2022-12-11T19:05:42.650Z,5.45
2022-12-11T19:08:16.636Z,4.57
2022-12-11T19:10:48.502Z,5.88
2022-12-11T19:13:21.753Z,4.85
2022-12-11T19:15:52.474Z,5.55
2022-12-11T19:18:24.599Z,5.53
2022-12-11T19:21:04.896Z,5.35
2022-12-11T19:23:39.364Z,4.70
2022-12-11T19:26:13.606Z,5.40
2022-12-11T19:28:47.399Z,4.33
2022-12-11T19:31:20.477Z,5.70
2022-12-11T19:33:51.136Z,4.10
2022-12-11T19:36:24.602Z,4.75
2022-12-11T19:39:01.464Z,5.40
2022-12-11T19:41:34.681Z,5.78
2022-12-11T19:44:08.109Z,4.38
2022-12-11T19:46:39.116Z,3.40
2022-12-11T19:49:09.877Z,3.03
2022-12-11T19:51:44.089Z,1.90
2022-12-11T19:54:17.002Z,2.42
2022-12-11T19:56:48.300Z,3.40
2022-12-11T19:59:21.833Z,4.18
2022-12-11T20:01:52.497Z,3.35
2022-12-11T20:04:23.314Z,3.83
2022-12-11T20:06:54.324Z,6.03
2022-12-11T20:09:25.497Z,7.00
2022-12-11T20:11:56.336Z,5.90
2022-12-11T20:14:30.267Z,6.00
2022-12-11T20:17:13.312Z,5.35
2022-12-11T20:19:45.144Z,5.85
2022-12-11T20:22:15.723Z,6.18
2022-12-11T20:24:46.373Z,5.57
2022-12-11T20:27:16.930Z,6.10
2022-12-11T20:29:50.336Z,6.78
2022-12-11T20:32:21.060Z,5.57
2022-12-11T20:34:51.624Z,5.70
2022-12-11T20:37:22.078Z,5.20
2022-12-11T20:39:52.680Z,4.78
2022-12-11T20:42:23.223Z,4.47
2022-12-11T20:44:56.991Z,5.63
2022-12-11T20:47:27.563Z,6.03
2022-12-11T20:49:58.225Z,5.90
2022-12-11T20:52:29.471Z,5.40
2022-12-11T20:55:00.072Z,5.57
2022-12-11T20:57:30.883Z,7.07
2022-12-11T21:00:04.280Z,6.18
2022-12-11T21:02:36.129Z,4.73
2022-12-11T21:05:06.991Z,4.00
2022-12-11T21:07:37.572Z,3.53
2022-12-11T21:10:09.201Z,4.60
2022-12-11T21:12:39.923Z,6.88
2022-12-11T21:15:14.561Z,4.93
2022-12-11T21:17:45.303Z,4.73
2022-12-11T21:20:16.035Z,4.55
2022-12-11T21:22:46.740Z,4.70
2022-12-11T21:25:18.071Z,4.30
2022-12-11T21:27:48.712Z,4.93
2022-12-11T21:30:22.696Z,5.35
2022-12-11T21:32:53.483Z,5.20
2022-12-11T21:35:24.687Z,4.57
2022-12-11T21:37:55.218Z,4.43
2022-12-11T21:40:25.807Z,4.00
2022-12-11T21:42:56.462Z,3.38
2022-12-11T21:45:59.872Z,2.67
2022-12-11T21:48:20.418Z,3.33
2022-12-11T21:50:51.534Z,3.28
2022-12-11T21:53:22.217Z,3.38
2022-12-11T21:55:52.881Z,3.92
2022-12-11T21:58:23.462Z,3.45
2022-12-11T22:00:56.829Z,3.35
2022-12-11T22:03:27.586Z,3.08
2022-12-11T22:05:58.381Z,4.00
2022-12-11T22:08:28.989Z,3.58
2022-12-11T22:11:01.257Z,3.53
2022-12-11T22:13:31.946Z,3.28
2022-12-11T22:16:05.565Z,2.65
2022-12-11T22:18:36.182Z,2.83
2022-12-11T22:21:07.141Z,2.60
2022-12-11T22:23:37.707Z,2.80
2022-12-11T22:26:08.486Z,3.38
2022-12-11T22:28:39.073Z,2.53
2022-12-11T22:31:13.328Z,2.63
2022-12-11T22:33:44.221Z,1.60
2022-12-11T22:36:15.390Z,2.30
2022-12-11T22:38:46.333Z,2.40
2022-12-11T22:41:22.307Z,2.30
2022-12-11T22:43:53.570Z,2.38
2022-12-11T22:46:28.840Z,1.95
2022-12-11T22:49:00.676Z,1.83
2022-12-11T22:51:31.465Z,1.70
2022-12-11T22:54:02.587Z,1.90
2022-12-11T22:56:33.206Z,1.95
2022-12-11T22:59:03.790Z,2.20
2022-12-11T23:01:37.223Z,2.47
2022-12-11T23:04:08.202Z,2.08
2022-12-11T23:06:38.924Z,2.60
2022-12-11T23:09:09.670Z,2.30
2022-12-11T23:11:41.716Z,2.28
2022-12-11T23:14:16.857Z,2.25
2022-12-11T23:16:50.171Z,2.83
2022-12-11T23:19:25.437Z,3.42
2022-12-11T23:21:56.842Z,4.78
2022-12-11T23:24:27.472Z,6.25
2022-12-11T23:26:58.133Z,5.97
2022-12-11T23:29:28.786Z,5.78
2022-12-11T23:32:02.046Z,5.22
2022-12-11T23:34:32.875Z,4.78
2022-12-11T23:37:03.615Z,4.53
2022-12-11T23:39:35.112Z,4.70
2022-12-11T23:42:05.807Z,5.35
2022-12-11T23:44:36.422Z,5.30
2022-12-11T23:47:09.635Z,5.32
2022-12-11T23:49:40.106Z,5.47
2022-12-11T23:52:12.493Z,5.60
2022-12-11T23:54:43.066Z,6.15
2022-12-11T23:57:13.896Z,6.10
2022-12-11T23:59:44.807Z,5.13
